Historique des stations

Station météo de Levroux

Altitude de la station : 157 m







Données météorologiques pour le 28/11/2021
Date
Heure
Températures Humidité Point de rosée Vitesse
du vent
Direction Rafales Windchill Pression Pluviométrie
Cumul
Date
Heure
Températures Humidité Point de rosée Vitesse
du vent
Direction Rafales Windchill Pression Pluviométrie
Cumul
28/11/2021 22:150.1 °C89 %-1.7 °C2 km/hN2 km/h-0.6 1009 hPa2.6 mm
28/11/2021 22:140.1 °C89 %-1.7 °C2 km/hN26 km/h-0.6 1008 hPa2.6 mm
28/11/2021 22:010.2 °C89 %-1.1 °C2 km/hN3 km/h-0.6 1008 hPa2.6 mm
28/11/2021 21:590.2 °C89 %-1.1 °C2 km/hN26 km/h-0.6 1008 hPa2.6 mm
28/11/2021 21:460.2 °C90 %-1.1 °C2 km/hN3 km/h-0.6 1008 hPa2.6 mm
28/11/2021 21:440.3 °C90 %-1.1 °C-N26 km/h0.6 1008 hPa2.6 mm
28/11/2021 21:300.3 °C91 %-1.1 °C3 km/hN5 km/h-0.6 1008 hPa2.6 mm
28/11/2021 21:290.3 °C90 %-1.1 °C2 km/hN26 km/h0.0 1008 hPa2.6 mm
28/11/2021 21:150.4 °C90 %-1.1 °C-N2 km/h0.6 1008 hPa2.6 mm
28/11/2021 21:140.4 °C90 %-1.1 °C-N26 km/h0.6 1008 hPa2.6 mm
28/11/2021 21:000.7 °C89 %-1.1 °C-N2 km/h0.6 1008 hPa2.6 mm
28/11/2021 20:590.7 °C89 %-1.1 °C-N26 km/h0.6 1008 hPa2.6 mm
28/11/2021 20:450.9 °C89 %-0.6 °C2 km/hN3 km/h0.6 1008 hPa2.6 mm
28/11/2021 20:440.9 °C89 %-0.6 °C2 km/hN26 km/h0.6 1008 hPa2.6 mm
28/11/2021 20:301.2 °C88 %-0.6 °C2 km/hN26 km/h0.6 1008 hPa2.6 mm
28/11/2021 20:151.4 °C87 %-0.6 °C2 km/hN26 km/h1.1 1008 hPa2.6 mm
28/11/2021 20:001.7 °C86 %-0.6 °C2 km/hN26 km/h1.1 1008 hPa2.6 mm
28/11/2021 19:452.1 °C85 %0.0 °C-N26 km/h2.2 1008 hPa2.6 mm
28/11/2021 19:302.4 °C84 %0.0 °C3 km/hN26 km/h1.1 1008 hPa2.6 mm
28/11/2021 19:152.4 °C84 %0.0 °C5 km/hN26 km/h1.1 1007 hPa2.6 mm
28/11/2021 19:002.3 °C86 %0.0 °C2 km/hN26 km/h1.7 1007 hPa2.6 mm
28/11/2021 18:452.3 °C86 %0.0 °C6 km/hN26 km/h0.6 1007 hPa2.6 mm
28/11/2021 18:292.4 °C86 %0.6 °C5 km/hN26 km/h1.1 1007 hPa2.6 mm
28/11/2021 18:142.4 °C87 %0.6 °C6 km/hN26 km/h0.6 1007 hPa2.6 mm
28/11/2021 17:592.6 °C87 %0.6 °C6 km/hN26 km/h1.1 1007 hPa2.6 mm
28/11/2021 17:443.1 °C84 %0.6 °C8 km/hN26 km/h1.1 1007 hPa2.6 mm
28/11/2021 17:293.1 °C85 %1.1 °C6 km/hN26 km/h1.7 1006 hPa2.6 mm
28/11/2021 17:143.4 °C85 %1.1 °C2 km/hN26 km/h2.8 1006 hPa2.6 mm
28/11/2021 16:593.6 °C85 %1.1 °C3 km/hN26 km/h2.8 1006 hPa2.6 mm
28/11/2021 16:443.9 °C86 %1.7 °C2 km/hN26 km/h3.3 1006 hPa2.6 mm
28/11/2021 16:294.1 °C86 %2.2 °C6 km/hN26 km/h2.2 1006 hPa2.6 mm
28/11/2021 16:144.0 °C87 %2.2 °C5 km/hN26 km/h2.8 1006 hPa2.6 mm
28/11/2021 15:594.0 °C87 %2.2 °C3 km/hN26 km/h2.8 1006 hPa2.6 mm
28/11/2021 15:454.0 °C88 %2.2 °C3 km/hN8 km/h2.8 1006 hPa2.6 mm
28/11/2021 15:444.0 °C88 %2.2 °C3 km/hN26 km/h2.8 1006 hPa2.6 mm
28/11/2021 15:303.8 °C88 %2.2 °C-N5 km/h3.9 1006 hPa2.6 mm
28/11/2021 15:293.8 °C88 %2.2 °C3 km/hN26 km/h2.8 1006 hPa2.6 mm
28/11/2021 15:154.1 °C86 %2.2 °C2 km/hN14 km/h3.3 1006 hPa2.6 mm
28/11/2021 15:144.1 °C86 %2.2 °C10 km/hN26 km/h1.1 1006 hPa2.6 mm
28/11/2021 15:004.6 °C86 %2.8 °C3 km/hN13 km/h3.3 1006 hPa2.4 mm
28/11/2021 14:594.6 °C86 %2.8 °C2 km/hN26 km/h3.9 1006 hPa2.4 mm
28/11/2021 14:454.5 °C85 %2.2 °C14 km/hN18 km/h1.1 1006 hPa2.4 mm
28/11/2021 14:444.5 °C86 %2.2 °C5 km/hN26 km/h3.3 1006 hPa2.4 mm
28/11/2021 14:304.4 °C86 %2.2 °C8 km/hN18 km/h2.2 1006 hPa2.4 mm
28/11/2021 14:294.3 °C86 %2.2 °C6 km/hN26 km/h2.8 1006 hPa2.4 mm
28/11/2021 14:154.3 °C86 %2.2 °C8 km/hN21 km/h2.2 1006 hPa2.2 mm
28/11/2021 14:144.3 °C86 %2.2 °C6 km/hN26 km/h2.8 1006 hPa2.2 mm
28/11/2021 14:004.1 °C88 %2.2 °C5 km/hN18 km/h2.8 1006 hPa2.2 mm
28/11/2021 13:594.1 °C88 %2.2 °C3 km/hN26 km/h2.8 1006 hPa2.2 mm
28/11/2021 13:454.1 °C88 %2.2 °C10 km/hN21 km/h1.1 1006 hPa2.2 mm
28/11/2021 13:444.1 °C88 %2.2 °C6 km/hN26 km/h2.2 1006 hPa2.2 mm
28/11/2021 13:304.1 °C88 %2.2 °C6 km/hN16 km/h2.2 1006 hPa2.2 mm
28/11/2021 13:294.1 °C88 %2.2 °C6 km/hN26 km/h2.2 1006 hPa2.2 mm
28/11/2021 13:154.0 °C89 %2.2 °C6 km/hN18 km/h2.2 1006 hPa2.2 mm
28/11/2021 13:143.9 °C90 %2.8 °C5 km/hN26 km/h2.8 1006 hPa2.2 mm
28/11/2021 13:003.7 °C90 %2.2 °C8 km/hN18 km/h1.7 1006 hPa2.2 mm
28/11/2021 12:593.6 °C90 %2.2 °C16 km/hN26 km/h0.6 1006 hPa2.2 mm
28/11/2021 12:443.3 °C91 %2.2 °C5 km/hN26 km/h2.2 1006 hPa2.2 mm
28/11/2021 12:303.2 °C91 %1.7 °C10 km/hN18 km/h0.6 1006 hPa2.2 mm
28/11/2021 12:293.1 °C91 %1.7 °C6 km/hN26 km/h1.7 1006 hPa2.2 mm
28/11/2021 12:153.1 °C92 %1.7 °C3 km/hN16 km/h2.2 1006 hPa2.2 mm
28/11/2021 12:143.0 °C92 %1.7 °C3 km/hN26 km/h1.7 1006 hPa2.2 mm
28/11/2021 12:002.9 °C91 %1.7 °C3 km/hN19 km/h1.7 1006 hPa2.2 mm
28/11/2021 11:592.8 °C91 %1.7 °C8 km/hN26 km/h0.6 1006 hPa2.2 mm
28/11/2021 11:452.8 °C91 %1.7 °C5 km/hN19 km/h1.7 1006 hPa2.2 mm
28/11/2021 11:442.8 °C91 %1.7 °C10 km/hN26 km/h0.0 1006 hPa2.2 mm
28/11/2021 11:302.9 °C90 %1.7 °C16 km/hN23 km/h-1.1 1006 hPa2.2 mm
28/11/2021 11:292.9 °C90 %1.7 °C6 km/hN26 km/h1.1 1006 hPa2.2 mm
28/11/2021 11:152.9 °C90 %1.7 °C8 km/hN23 km/h0.6 1006 hPa2.2 mm
28/11/2021 11:143.0 °C90 %1.7 °C13 km/hN26 km/h-0.6 1006 hPa2.2 mm
28/11/2021 11:003.0 °C89 %1.7 °C6 km/hN21 km/h1.1 1006 hPa2.2 mm
28/11/2021 10:593.0 °C89 %1.7 °C8 km/hN26 km/h0.6 1006 hPa2.2 mm
28/11/2021 10:453.0 °C90 %1.7 °C10 km/hN18 km/h0.0 1006 hPa2.2 mm
28/11/2021 10:442.9 °C90 %1.7 °C5 km/hN26 km/h1.7 1006 hPa2.2 mm
28/11/2021 10:302.9 °C91 %1.7 °C6 km/hN18 km/h1.1 1006 hPa2.2 mm
28/11/2021 10:292.9 °C91 %1.7 °C6 km/hN26 km/h1.1 1006 hPa2.2 mm
28/11/2021 10:152.9 °C91 %1.7 °C6 km/hN14 km/h1.1 1005 hPa2.2 mm
28/11/2021 10:142.9 °C91 %1.7 °C3 km/hN26 km/h1.7 1005 hPa2.2 mm
28/11/2021 10:002.8 °C92 %1.7 °C6 km/hN18 km/h1.1 1005 hPa2.2 mm
28/11/2021 09:592.8 °C92 %1.7 °C5 km/hN26 km/h1.7 1005 hPa2.2 mm
28/11/2021 09:452.7 °C92 %1.7 °C6 km/hN26 km/h1.1 1005 hPa2.2 mm
28/11/2021 09:302.6 °C93 %1.7 °C2 km/hN26 km/h2.2 1005 hPa2.2 mm
28/11/2021 09:152.4 °C93 %1.7 °C5 km/hN26 km/h1.1 1005 hPa2.2 mm
28/11/2021 09:002.3 °C94 %1.7 °C2 km/hN26 km/h1.7 1005 hPa2.2 mm
28/11/2021 08:452.3 °C93 %1.1 °C5 km/hN26 km/h1.1 1005 hPa2 mm
28/11/2021 08:302.3 °C93 %1.1 °C5 km/hN26 km/h1.1 1004 hPa2 mm
28/11/2021 08:152.2 °C93 %1.1 °C6 km/hN26 km/h0.6 1004 hPa1.8 mm
28/11/2021 07:592.3 °C93 %1.1 °C6 km/hN26 km/h0.6 1004 hPa1.6 mm
28/11/2021 07:442.4 °C92 %1.1 °C6 km/hN26 km/h0.6 1004 hPa1.6 mm
28/11/2021 07:292.4 °C92 %1.1 °C8 km/hN26 km/h0.0 1004 hPa1.4 mm
28/11/2021 07:142.5 °C92 %1.1 °C5 km/hN26 km/h1.7 1004 hPa1.4 mm
28/11/2021 06:592.6 °C92 %1.7 °C10 km/hN26 km/h0.0 1003 hPa1.4 mm
28/11/2021 06:442.6 °C92 %1.7 °C6 km/hN26 km/h1.1 1003 hPa1.2 mm
28/11/2021 06:292.6 °C92 %1.7 °C5 km/hN26 km/h1.7 1003 hPa1.2 mm
28/11/2021 06:142.5 °C91 %1.1 °C6 km/hN26 km/h1.1 1003 hPa1 mm
28/11/2021 05:592.8 °C91 %1.7 °C8 km/hN26 km/h0.6 1003 hPa0.8 mm
28/11/2021 05:443.1 °C90 %1.7 °C5 km/hN26 km/h2.2 1003 hPa0.6 mm
28/11/2021 05:303.2 °C89 %1.7 °C5 km/hN16 km/h2.2 1003 hPa0.6 mm
28/11/2021 05:293.2 °C89 %1.7 °C8 km/hN26 km/h1.1 1003 hPa0.6 mm
28/11/2021 05:153.3 °C89 %1.7 °C3 km/hN19 km/h2.2 1003 hPa0.6 mm
28/11/2021 05:143.3 °C89 %1.7 °C5 km/hN26 km/h2.2 1003 hPa0.6 mm
28/11/2021 05:003.3 °C89 %1.7 °C10 km/hN16 km/h0.6 1003 hPa0.6 mm
28/11/2021 04:593.2 °C89 %1.7 °C5 km/hN26 km/h2.2 1003 hPa0.6 mm
28/11/2021 04:453.2 °C89 %1.7 °C2 km/hN16 km/h2.8 1003 hPa0.6 mm
28/11/2021 04:443.2 °C90 %1.7 °C3 km/hN26 km/h2.2 1003 hPa0.6 mm
28/11/2021 04:303.3 °C89 %1.7 °C10 km/hN16 km/h0.6 1003 hPa0.6 mm
28/11/2021 04:293.3 °C89 %1.7 °C8 km/hN26 km/h1.1 1003 hPa0.6 mm
28/11/2021 04:153.4 °C89 %1.7 °C10 km/hN16 km/h0.6 1003 hPa0.6 mm
28/11/2021 04:143.4 °C89 %1.7 °C6 km/hN26 km/h1.7 1003 hPa0.6 mm
28/11/2021 04:003.4 °C89 %1.7 °C8 km/hN16 km/h1.1 1003 hPa0.6 mm
28/11/2021 03:593.4 °C89 %1.7 °C13 km/hN26 km/h0.6 1003 hPa0.6 mm
28/11/2021 03:453.4 °C89 %1.7 °C5 km/hN18 km/h2.2 1002 hPa0.6 mm
28/11/2021 03:443.4 °C89 %1.7 °C6 km/hN26 km/h1.7 1002 hPa0.6 mm
28/11/2021 03:303.5 °C89 %1.7 °C2 km/hN14 km/h2.8 1002 hPa0.6 mm
28/11/2021 03:293.5 °C89 %1.7 °C6 km/hN26 km/h1.7 1002 hPa0.6 mm
28/11/2021 03:153.6 °C89 %2.2 °C3 km/hN19 km/h2.2 1002 hPa0.6 mm
28/11/2021 03:143.6 °C89 %2.2 °C8 km/hN26 km/h1.1 1002 hPa0.6 mm
28/11/2021 03:003.6 °C89 %2.2 °C6 km/hN18 km/h1.7 1002 hPa0.6 mm
28/11/2021 02:593.6 °C89 %2.2 °C13 km/hN26 km/h0.6 1002 hPa0.6 mm
28/11/2021 02:453.6 °C89 %2.2 °C6 km/hN16 km/h2.2 1002 hPa0.6 mm
28/11/2021 02:443.6 °C89 %2.2 °C6 km/hN26 km/h2.2 1002 hPa0.6 mm
28/11/2021 02:303.7 °C89 %2.2 °C21 km/hN21 km/h-0.6 1002 hPa0.6 mm
28/11/2021 02:293.7 °C89 %2.2 °C3 km/hN26 km/h2.8 1002 hPa0.6 mm
28/11/2021 02:153.7 °C90 %2.2 °C2 km/hN21 km/h3.3 1002 hPa0.6 mm
28/11/2021 02:143.7 °C89 %2.2 °C6 km/hN26 km/h2.2 1002 hPa0.6 mm
28/11/2021 02:003.7 °C90 %2.2 °C3 km/hN18 km/h2.8 1002 hPa0.6 mm
28/11/2021 01:593.8 °C90 %2.2 °C5 km/hN26 km/h2.8 1002 hPa0.6 mm
28/11/2021 01:453.8 °C90 %2.2 °C8 km/hN21 km/h1.7 1002 hPa0.6 mm
28/11/2021 01:443.8 °C89 %2.2 °C5 km/hN26 km/h2.8 1001 hPa0.6 mm
28/11/2021 01:303.7 °C90 %2.2 °C10 km/hN23 km/h1.1 1001 hPa0.4 mm
28/11/2021 01:293.7 °C90 %2.2 °C8 km/hN21 km/h1.7 1001 hPa0.4 mm
28/11/2021 01:153.7 °C91 %2.2 °C3 km/hN18 km/h2.8 1001 hPa0.4 mm
28/11/2021 01:143.7 °C91 %2.2 °C8 km/hN21 km/h1.7 1001 hPa0.4 mm
28/11/2021 01:003.8 °C91 %2.8 °C5 km/hN21 km/h2.8 1001 hPa0.4 mm
28/11/2021 00:454.0 °C90 %2.8 °C5 km/hN19 km/h2.8 1001 hPa-
28/11/2021 00:304.1 °C90 %2.8 °C8 km/hN19 km/h1.7 1001 hPa-
28/11/2021 00:154.1 °C90 %2.8 °C8 km/hN19 km/h1.7 1001 hPa-
28/11/2021 00:004.1 °C91 %2.8 °C6 km/hN16 km/h2.2 1001 hPa-


Minima :

Température : 0.1 °C
Humidité : 84 %
Point de rosée : -1.7 °C
Vent moyen : 2 km/h
Windchill : -1.1
Pression atm. : 1001 hPa
Maxima :

Température : 4.6 °C
Humidité : 94 %
Point de rosée : 2.8 °C
Vent moyen : 21 km/h
Windchill : 3.9
Pression atm. : 1009 hPa
Rafales max : 26 km/h
Cumul de pluie sur 24H : 2.6 mm

Levroux est une commune du département Indre (36).
La station météorologique du réseau de l'association la plus proche de Levroux est celle de Ménétréols-sous-Vatan



Icône Facebook Association Météo Centre Icône Twitter Association Météo Centre Icône Chaîne Youtube Association Météo Centre Icône contact Association Météo Centre Icône Insta Association Météo Centre